createdAt,value
2017-09-02T00:01:45.854Z,76.47
2017-09-02T00:04:12.194Z,76.09
2017-09-02T00:06:38.520Z,76.44
2017-09-02T00:09:04.853Z,76.22
2017-09-02T00:11:31.221Z,76.78
2017-09-02T00:13:57.516Z,76.88
2017-09-02T00:16:23.837Z,76.81
2017-09-02T00:18:50.166Z,76.64
2017-09-02T00:21:16.491Z,76.89
2017-09-02T00:23:42.723Z,76.58
2017-09-02T00:26:08.947Z,76.59
2017-09-02T00:28:35.183Z,76.55
2017-09-02T00:31:01.521Z,76.87
2017-09-02T00:33:27.892Z,77.33
2017-09-02T00:35:54.165Z,77.77
2017-09-02T00:38:20.418Z,78.10
2017-09-02T00:40:46.752Z,78.53
2017-09-02T00:43:13.073Z,78.40
2017-09-02T00:45:39.405Z,78.22
2017-09-02T00:48:05.730Z,78.41
2017-09-02T00:50:31.969Z,78.08
2017-09-02T00:52:58.318Z,78.19
2017-09-02T00:55:24.638Z,78.11
2017-09-02T00:57:50.978Z,78.08
2017-09-02T01:00:17.274Z,78.33
2017-09-02T01:02:43.518Z,77.86
2017-09-02T01:05:09.746Z,77.56
2017-09-02T01:07:36.000Z,77.86
2017-09-02T01:10:02.328Z,77.66
2017-09-02T01:12:28.629Z,78.14
2017-09-02T01:14:55.782Z,78.27
2017-09-02T01:17:22.005Z,78.68
2017-09-02T01:19:48.236Z,78.54
2017-09-02T01:22:14.476Z,78.59
2017-09-02T01:24:40.734Z,78.84
2017-09-02T01:27:07.034Z,78.85
2017-09-02T01:29:33.295Z,78.68
2017-09-02T01:31:59.612Z,79.23
2017-09-02T01:34:25.913Z,79.76
2017-09-02T01:36:52.161Z,79.85
2017-09-02T01:39:18.405Z,80.35
2017-09-02T01:41:44.725Z,80.37
2017-09-02T01:44:11.021Z,80.81
2017-09-02T01:46:37.301Z,80.65
2017-09-02T01:49:03.620Z,80.40
2017-09-02T01:51:29.854Z,80.83
2017-09-02T01:53:56.184Z,81.26
2017-09-02T01:56:22.405Z,80.96
2017-09-02T01:58:48.634Z,80.90
2017-09-02T02:01:14.870Z,80.75
2017-09-02T02:03:41.112Z,80.93
2017-09-02T02:06:07.428Z,80.58
2017-09-02T02:08:33.796Z,80.26
2017-09-02T02:11:00.019Z,80.50
2017-09-02T02:13:26.344Z,80.39
2017-09-02T02:15:52.648Z,80.34
2017-09-02T02:18:18.894Z,80.15
2017-09-02T02:20:45.095Z,80.30
2017-09-02T02:23:11.351Z,80.16
2017-09-02T02:25:37.676Z,80.43
2017-09-02T02:28:03.928Z,80.34
2017-09-02T02:30:30.233Z,80.37
2017-09-02T02:32:56.503Z,80.62
2017-09-02T02:35:22.802Z,80.50
2017-09-02T02:37:49.035Z,80.52
2017-09-02T02:40:15.264Z,80.51
2017-09-02T02:42:41.482Z,80.62
2017-09-02T02:45:07.710Z,80.83
2017-09-02T02:47:33.961Z,81.46
2017-09-02T02:50:00.292Z,81.60
2017-09-02T02:52:26.621Z,81.56
2017-09-02T02:54:52.863Z,81.65
2017-09-02T02:57:19.172Z,81.69
2017-09-02T02:59:45.416Z,81.78
2017-09-02T03:02:11.740Z,81.93
2017-09-02T03:04:38.001Z,82.07
2017-09-02T03:07:04.318Z,82.41
2017-09-02T03:09:30.656Z,82.56
2017-09-02T03:11:56.987Z,82.56
2017-09-02T03:14:23.323Z,82.85
2017-09-02T03:16:49.619Z,82.90
2017-09-02T03:19:15.866Z,82.30
2017-09-02T03:21:42.095Z,82.26
2017-09-02T03:24:08.345Z,81.92
2017-09-02T03:26:34.709Z,82.03
2017-09-02T03:29:01.006Z,81.96
2017-09-02T03:31:27.386Z,82.08
2017-09-02T03:33:53.652Z,81.92
2017-09-02T03:36:19.893Z,82.31
2017-09-02T03:38:46.227Z,82.67
2017-09-02T03:41:12.558Z,82.13
2017-09-02T03:43:38.871Z,81.78
2017-09-02T03:46:05.117Z,81.96
2017-09-02T03:48:31.426Z,81.87
2017-09-02T03:50:57.666Z,81.67
2017-09-02T03:53:24.002Z,81.14
2017-09-02T03:55:50.381Z,81.21
2017-09-02T03:58:17.647Z,80.66
2017-09-02T04:00:43.962Z,80.15
2017-09-02T04:03:11.354Z,80.59
2017-09-02T04:05:38.606Z,79.97
2017-09-02T04:08:04.912Z,79.78
2017-09-02T04:10:31.242Z,80.14
2017-09-02T04:12:57.541Z,80.19
2017-09-02T04:15:24.529Z,80.60
2017-09-02T04:17:50.851Z,80.64
2017-09-02T04:20:17.159Z,80.24
2017-09-02T04:22:43.487Z,79.73
2017-09-02T04:25:09.835Z,79.55
2017-09-02T04:27:36.139Z,79.31
2017-09-02T04:30:02.594Z,79.14
2017-09-02T04:32:28.958Z,78.20
2017-09-02T04:34:55.334Z,76.44
2017-09-02T04:37:21.675Z,74.15
2017-09-02T04:39:48.046Z,74.42
2017-09-02T04:42:14.376Z,73.15
2017-09-02T04:44:40.724Z,72.04
2017-09-02T04:47:07.124Z,69.89
2017-09-02T04:49:33.506Z,67.66
2017-09-02T04:51:59.828Z,66.87
2017-09-02T04:54:26.075Z,66.67
2017-09-02T04:56:52.414Z,64.01
2017-09-02T04:59:18.765Z,61.71
2017-09-02T05:01:45.126Z,60.07
2017-09-02T05:04:11.518Z,57.53
2017-09-02T05:06:37.892Z,55.12
2017-09-02T05:09:04.289Z,52.69
2017-09-02T05:11:30.701Z,50.28
2017-09-02T05:13:58.045Z,48.97
2017-09-02T05:16:24.467Z,48.04
2017-09-02T05:18:51.333Z,46.89
2017-09-02T05:21:17.628Z,46.09
2017-09-02T12:43:13.161Z,19.55
2017-09-02T12:45:39.357Z,19.30
2017-09-02T12:48:05.529Z,18.83
2017-09-02T12:50:31.820Z,19.04
2017-09-02T12:52:58.114Z,18.54
2017-09-02T12:55:24.317Z,17.94
2017-09-02T12:57:50.527Z,18.66
2017-09-02T13:00:17.567Z,17.71
2017-09-02T13:02:43.788Z,17.29
2017-09-02T13:05:09.967Z,17.33
2017-09-02T13:07:36.162Z,17.98
2017-09-02T13:10:02.352Z,16.86
2017-09-02T13:12:28.537Z,17.01
2017-09-02T13:14:54.739Z,18.06
2017-09-02T13:17:20.927Z,18.35
2017-09-02T13:19:47.152Z,17.65
2017-09-02T13:22:13.339Z,18.17
2017-09-02T13:24:39.552Z,18.79
2017-09-02T13:27:05.747Z,20.01
2017-09-02T13:29:31.950Z,17.74
2017-09-02T13:31:58.156Z,19.20
2017-09-02T13:34:24.337Z,18.13
2017-09-02T13:36:50.536Z,17.30
2017-09-02T13:39:16.761Z,17.19
2017-09-02T13:41:42.946Z,16.61
2017-09-02T13:44:09.157Z,17.43
2017-09-02T13:46:35.373Z,16.52
2017-09-02T13:49:01.557Z,16.79
2017-09-02T13:51:27.750Z,16.48
2017-09-02T13:53:53.936Z,17.27
2017-09-02T13:56:20.142Z,16.34
2017-09-02T13:58:46.383Z,16.83
2017-09-02T14:01:12.614Z,17.68
2017-09-02T14:03:38.851Z,18.77
2017-09-02T14:06:05.031Z,16.91
2017-09-02T14:08:31.339Z,17.08
2017-09-02T14:10:57.579Z,17.23
2017-09-02T14:13:27.513Z,16.84
2017-09-02T14:15:53.832Z,17.79
2017-09-02T14:20:59.251Z,17.97
2017-09-02T14:23:25.577Z,18.70
2017-09-02T14:25:51.802Z,18.80
2017-09-02T14:28:18.046Z,18.47
2017-09-02T14:30:44.338Z,19.56
2017-09-02T14:33:10.568Z,18.42
2017-09-02T14:35:36.847Z,17.38
2017-09-02T14:38:03.087Z,17.71
2017-09-02T14:40:29.471Z,17.53
2017-09-02T14:42:55.727Z,19.41
2017-09-02T14:45:22.993Z,18.18
2017-09-02T14:47:49.290Z,18.84
2017-09-02T14:50:15.550Z,19.48
2017-09-02T14:52:41.760Z,20.08
2017-09-02T14:55:08.012Z,20.27
2017-09-02T14:57:34.262Z,19.41
2017-09-02T15:00:00.745Z,20.56
2017-09-02T15:02:27.000Z,18.93
2017-09-02T15:04:53.933Z,17.82
2017-09-02T15:07:20.139Z,18.16
2017-09-02T15:09:46.435Z,19.41
2017-09-02T15:12:12.735Z,18.71
2017-09-02T15:14:39.060Z,18.79
2017-09-02T15:17:05.290Z,18.92
2017-09-02T15:19:31.533Z,19.67
2017-09-02T15:21:58.059Z,19.84
2017-09-02T15:24:24.520Z,19.45
2017-09-02T15:26:51.823Z,19.71
2017-09-02T15:29:18.091Z,20.51
2017-09-02T15:31:44.296Z,20.25
2017-09-02T15:34:10.510Z,20.87
2017-09-02T15:36:40.495Z,20.52
2017-09-02T15:39:06.703Z,20.87
2017-09-02T15:41:33.472Z,21.16
2017-09-02T15:43:59.969Z,22.05
2017-09-02T15:46:26.271Z,21.52
2017-09-02T15:48:52.570Z,21.39
2017-09-02T15:51:19.625Z,21.56
2017-09-02T15:53:46.416Z,22.13
2017-09-02T15:56:12.672Z,21.61
2017-09-02T15:58:38.918Z,21.70
2017-09-02T16:01:05.167Z,21.84
2017-09-02T16:03:31.467Z,21.79
2017-09-02T16:05:57.688Z,22.10
2017-09-02T16:08:23.968Z,22.49
2017-09-02T16:10:50.258Z,22.61
2017-09-02T16:13:16.512Z,22.86
2017-09-02T16:15:42.765Z,23.05
2017-09-02T16:18:09.105Z,23.21
2017-09-02T16:20:35.380Z,24.14
2017-09-02T16:23:01.681Z,24.10
2017-09-02T16:25:28.023Z,24.62
2017-09-02T16:27:54.288Z,25.10
2017-09-02T16:30:20.545Z,25.89
2017-09-02T16:32:46.788Z,26.84
2017-09-02T16:35:17.415Z,27.59
2017-09-02T16:41:49.877Z,28.78
2017-09-02T16:44:16.178Z,29.93
2017-09-02T16:46:43.541Z,30.48
2017-09-02T16:49:12.018Z,31.20
2017-09-02T16:51:39.116Z,31.00
2017-09-02T16:54:05.881Z,31.85
2017-09-02T16:56:32.153Z,32.33
2017-09-02T16:58:59.306Z,32.18
2017-09-02T17:01:26.778Z,32.24
2017-09-02T17:03:54.269Z,32.52
2017-09-02T17:06:20.475Z,33.08
2017-09-02T17:08:46.819Z,33.39
2017-09-02T17:11:13.105Z,33.51
2017-09-02T17:13:39.327Z,34.34
2017-09-02T17:16:05.625Z,34.20
2017-09-02T17:18:31.952Z,34.29
2017-09-02T17:20:58.222Z,35.63
2017-09-02T17:23:24.483Z,36.24
2017-09-02T17:25:50.748Z,35.80
2017-09-02T17:28:16.991Z,36.04
2017-09-02T17:30:43.218Z,35.90
2017-09-02T17:33:09.507Z,35.83
2017-09-02T17:35:35.803Z,35.95
2017-09-02T17:38:02.129Z,36.10
2017-09-02T17:40:28.472Z,36.18
2017-09-02T17:42:54.724Z,37.74
2017-09-02T17:45:20.964Z,37.67
2017-09-02T17:47:47.238Z,38.07
2017-09-02T17:50:13.481Z,38.88
2017-09-02T17:52:39.838Z,39.50
2017-09-02T17:57:36.367Z,38.97
2017-09-02T18:00:02.614Z,38.70
2017-09-02T18:09:12.145Z,40.01
2017-09-02T18:11:38.400Z,39.79
2017-09-02T18:14:04.670Z,39.91
2017-09-02T18:16:30.996Z,40.13
2017-09-02T18:18:57.386Z,40.15
2017-09-02T18:21:23.711Z,40.76
2017-09-02T18:23:50.229Z,41.26
2017-09-02T18:26:16.547Z,40.81
2017-09-02T18:28:43.588Z,41.05
2017-09-02T18:31:09.903Z,41.18
2017-09-02T18:33:36.158Z,41.16
2017-09-02T18:36:02.450Z,41.25
2017-09-02T18:38:29.107Z,41.43
2017-09-02T18:40:55.379Z,41.68
2017-09-02T18:43:21.726Z,42.32
2017-09-02T18:45:47.985Z,41.63
2017-09-02T18:48:14.259Z,41.86
2017-09-02T18:50:40.577Z,41.90
2017-09-02T18:53:06.856Z,42.30
2017-09-02T18:55:33.150Z,42.57
2017-09-02T18:57:59.472Z,42.87
2017-09-02T19:00:25.724Z,43.46
2017-09-02T19:02:52.059Z,43.46
2017-09-02T19:05:18.435Z,44.01
2017-09-02T19:07:44.774Z,44.59
2017-09-02T19:10:11.067Z,44.73
2017-09-02T19:12:37.374Z,44.97
2017-09-02T19:15:03.812Z,44.96
2017-09-02T19:17:30.639Z,44.33
2017-09-02T19:19:56.971Z,44.54
2017-09-02T19:22:23.309Z,44.58
2017-09-02T19:24:49.674Z,44.58
2017-09-02T19:27:15.960Z,44.95
2017-09-02T19:29:42.165Z,45.00
2017-09-02T19:32:08.926Z,44.47
2017-09-02T19:34:35.351Z,44.12
2017-09-02T19:37:01.636Z,44.23
2017-09-02T19:39:28.851Z,43.90
2017-09-02T19:41:55.120Z,43.54
2017-09-02T19:44:21.494Z,43.46
2017-09-02T19:46:47.949Z,43.41
2017-09-02T19:49:14.289Z,43.47
2017-09-02T19:51:40.603Z,43.64
2017-09-02T19:54:06.838Z,43.57
2017-09-02T19:56:33.158Z,43.44
2017-09-02T19:58:59.479Z,43.52
2017-09-02T20:08:09.199Z,43.32
2017-09-02T20:10:35.684Z,43.08
2017-09-02T20:13:01.916Z,43.39
2017-09-02T20:15:30.091Z,42.89
2017-09-02T20:17:56.434Z,43.12
2017-09-02T20:20:22.836Z,42.74
2017-09-02T20:22:49.152Z,42.91
2017-09-02T20:25:15.514Z,43.03
2017-09-02T20:27:42.532Z,42.90
2017-09-02T20:30:08.873Z,42.19
2017-09-02T20:32:35.198Z,42.60
2017-09-02T20:35:01.514Z,42.49
2017-09-02T20:37:27.829Z,41.91
2017-09-02T20:39:54.108Z,41.69
2017-09-02T20:42:20.409Z,41.03
2017-09-02T20:44:46.707Z,40.54
2017-09-02T20:47:12.991Z,40.30
2017-09-02T20:49:39.293Z,41.00
2017-09-02T21:19:26.817Z,44.59
2017-09-02T21:32:03.369Z,41.33
2017-09-02T21:37:12.935Z,41.20
